Time;durP1;ratioP1;P1;durP2;ratioP2;P2;SDS_P1;SDS_P2;PMS_P1;PMS_P2;Temp;Humidity;BMP_temperature;BMP_pressure;BME280_temperature;BME280_humidity;BME280_pressure;Samples;Min_cycle;Max_cycle;Signal;HPM_P1;HPM_P2
2023/09/09 00:01:57;;;;;;;8.90;3.80;;;;;;;25.19;26.78;101040.04;103317;1301;73781;-92
2023/09/09 00:04:22;;;;;;;9.20;3.50;;;;;;;25.18;27.01;101038.24;103124;1298;67582;-86
2023/09/09 00:06:48;;;;;;;6.40;3.60;;;;;;;25.18;27.00;101040.05;103296;1299;69265;-86
2023/09/09 00:09:16;;;;;;;6.80;3.50;;;;;;;25.18;26.88;101037.62;103357;1306;69274;-86
2023/09/09 00:11:42;;;;;;;4.80;3.30;;;;;;;25.17;26.93;101036.71;103258;1299;69290;-86
2023/09/09 00:14:07;;;;;;;5.70;3.60;;;;;;;25.17;27.00;101034.80;103278;1299;69297;-86
2023/09/09 00:16:34;;;;;;;7.00;3.80;;;;;;;25.17;27.15;101037.59;103146;1299;68514;-85
2023/09/09 00:19:00;;;;;;;6.10;3.80;;;;;;;25.16;27.13;101033.52;103205;1299;69354;-85
2023/09/09 00:21:25;;;;;;;8.60;3.90;;;;;;;25.15;27.22;101035.34;103222;1298;69258;-86
2023/09/09 00:23:50;;;;;;;6.10;3.50;;;;;;;25.15;27.29;101031.21;103275;1300;69301;-85
2023/09/09 00:26:16;;;;;;;3.60;3.00;;;;;;;25.15;27.24;101032.14;103308;1299;69792;-86
2023/09/09 00:28:51;;;;;;;7.30;3.60;;;;;;;25.14;27.17;101031.38;103127;1300;69270;-91
2023/09/09 00:31:16;;;;;;;4.80;3.30;;;;;;;25.14;27.21;101030.55;103021;1299;69232;-85
2023/09/09 00:33:42;;;;;;;6.60;3.40;;;;;;;25.13;27.39;101029.85;103201;1303;69297;-86
2023/09/09 00:36:07;;;;;;;6.10;3.40;;;;;;;25.13;27.34;101030.46;103295;1299;69342;-86
2023/09/09 00:38:32;;;;;;;5.50;3.40;;;;;;;25.13;27.16;101029.08;103278;1309;69296;-86
2023/09/09 00:41:17;;;;;;;4.80;3.40;;;;;;;25.12;27.36;101028.30;103249;1300;69409;-86
2023/09/09 00:43:45;;;;;;;5.00;2.80;;;;;;;25.11;27.44;101025.80;103318;1299;69214;-92
2023/09/09 00:46:11;;;;;;;6.40;3.10;;;;;;;25.11;27.41;101024.77;103220;1306;73840;-85
2023/09/09 00:48:37;;;;;;;4.80;3.00;;;;;;;25.11;27.25;101026.57;103187;1300;69317;-86
2023/09/09 00:51:04;;;;;;;5.90;3.30;;;;;;;25.10;27.39;101025.09;103283;1300;69303;-86
2023/09/09 00:53:30;;;;;;;4.70;3.00;;;;;;;25.10;27.26;101022.20;103304;1299;69295;-86
2023/09/09 00:55:58;;;;;;;4.20;2.60;;;;;;;25.10;27.23;101023.75;103297;1300;69246;-86
2023/09/09 00:58:24;;;;;;;4.20;2.60;;;;;;;25.09;27.21;101023.29;103174;1302;69115;-86
2023/09/09 01:00:49;;;;;;;6.70;3.70;;;;;;;25.09;27.33;101023.80;103294;1301;69246;-86
2023/09/09 01:03:15;;;;;;;6.20;3.30;;;;;;;25.09;27.45;101026.48;103285;1302;69262;-86
2023/09/09 01:05:40;;;;;;;5.10;3.00;;;;;;;25.08;27.40;101023.60;103293;1299;69252;-86
2023/09/09 01:08:06;;;;;;;4.80;2.80;;;;;;;25.08;27.30;101020.73;103381;1302;69285;-86
2023/09/09 01:10:39;;;;;;;5.80;3.20;;;;;;;25.07;27.39;101022.21;103225;1300;69288;-92
2023/09/09 01:13:05;;;;;;;3.80;2.70;;;;;;;25.07;27.51;101026.13;103264;1298;69284;-86
2023/09/09 01:15:31;;;;;;;3.60;2.70;;;;;;;25.06;27.59;101021.66;103355;1298;69295;-85
2023/09/09 01:17:56;;;;;;;6.70;3.30;;;;;;;25.06;27.46;101023.05;103340;1302;67948;-86
2023/09/09 01:20:22;;;;;;;5.00;3.00;;;;;;;25.05;27.58;101024.86;103191;1300;69302;-86
2023/09/09 01:22:48;;;;;;;6.10;3.20;;;;;;;25.05;27.32;101021.45;103201;1300;69298;-86
2023/09/09 01:25:14;;;;;;;3.90;2.80;;;;;;;25.05;27.41;101023.63;103158;1299;69288;-86
2023/09/09 01:27:40;;;;;;;6.20;3.20;;;;;;;25.05;27.46;101023.33;103245;1303;69360;-86
2023/09/09 01:30:06;;;;;;;4.80;2.80;;;;;;;25.04;27.78;101020.30;103281;1303;69365;-86
2023/09/09 01:32:32;;;;;;;7.00;3.20;;;;;;;25.04;27.88;101020.55;103300;1300;69249;-86
2023/09/09 01:34:57;;;;;;;4.60;3.00;;;;;;;25.03;27.52;101017.52;103879;1300;69382;-86
2023/09/09 01:37:33;;;;;;;5.30;3.20;;;;;;;25.03;27.75;101014.80;103766;1300;69334;-91
2023/09/09 01:40:10;;;;;;;4.60;2.70;;;;;;;25.03;27.89;101016.50;103526;1300;73631;-86
2023/09/09 01:42:37;;;;;;;4.90;3.10;;;;;;;25.02;27.96;101017.42;103737;1300;69261;-86
2023/09/09 01:45:03;;;;;;;4.60;2.80;;;;;;;25.02;27.86;101014.80;103110;1303;69344;-86
2023/09/09 01:47:29;;;;;;;4.20;2.90;;;;;;;25.02;27.89;101012.28;103246;1299;69351;-86
2023/09/09 01:49:54;;;;;;;3.90;2.80;;;;;;;25.02;27.82;101012.95;103310;1302;69300;-86
2023/09/09 01:52:38;;;;;;;3.70;2.80;;;;;;;25.02;27.90;101011.15;103393;1299;69300;-92
2023/09/09 01:55:04;;;;;;;3.50;2.70;;;;;;;25.01;27.97;101008.44;103789;1299;67222;-86
2023/09/09 01:57:29;;;;;;;4.20;3.10;;;;;;;25.00;27.95;101008.85;104893;1299;69190;-86
2023/09/09 01:59:56;;;;;;;6.00;3.20;;;;;;;25.00;28.01;101006.84;104180;1299;69355;-86
2023/09/09 02:02:22;;;;;;;5.10;3.30;;;;;;;25.01;27.87;101010.13;104160;1299;66765;-87
2023/09/09 02:04:47;;;;;;;3.90;2.60;;;;;;;25.01;27.87;101009.89;105051;1302;68123;-87
2023/09/09 02:09:49;;;;;;;5.90;3.40;;;;;;;25.01;28.20;101007.05;103516;1296;69282;-86
2023/09/09 02:12:15;;;;;;;6.70;3.40;;;;;;;25.01;27.96;101007.45;103370;1297;70311;-85
2023/09/09 02:14:40;;;;;;;4.80;2.90;;;;;;;25.00;28.18;101008.85;103395;1297;69237;-86
2023/09/09 02:17:06;;;;;;;4.90;3.00;;;;;;;25.00;28.03;101004.83;103367;1301;66990;-86
2023/09/09 02:19:32;;;;;;;4.60;3.00;;;;;;;24.99;28.21;101004.89;103415;1297;69442;-86
2023/09/09 02:21:58;;;;;;;4.60;3.00;;;;;;;24.99;28.29;101006.80;103244;1302;69175;-85
2023/09/09 02:24:23;;;;;;;5.20;2.90;;;;;;;24.99;28.27;101005.98;103448;1297;69275;-86
2023/09/09 02:26:49;;;;;;;4.20;3.00;;;;;;;24.98;28.30;101006.75;103332;1296;69274;-86
2023/09/09 02:29:14;;;;;;;4.80;2.90;;;;;;;24.98;28.18;101007.53;103378;1302;69265;-86
2023/09/09 02:31:40;;;;;;;4.70;3.10;;;;;;;24.97;28.41;101009.13;103452;1301;69166;-86
2023/09/09 02:34:06;;;;;;;4.60;2.90;;;;;;;24.97;28.44;101010.46;103168;1302;74587;-86
2023/09/09 02:36:32;;;;;;;4.30;3.10;;;;;;;24.96;28.09;101007.39;103352;1296;69249;-86
2023/09/09 02:38:58;;;;;;;3.90;2.70;;;;;;;24.95;28.35;101008.05;103355;1297;69826;-86
2023/09/09 02:41:23;;;;;;;5.00;3.20;;;;;;;24.95;28.34;101003.74;103415;1302;69169;-86
2023/09/09 02:43:48;;;;;;;5.80;2.80;;;;;;;24.94;28.57;101004.11;103438;1302;69290;-86
2023/09/09 02:46:22;;;;;;;5.40;2.70;;;;;;;24.94;28.61;101001.13;103264;1299;70013;-92
2023/09/09 02:48:48;;;;;;;7.00;2.80;;;;;;;24.93;28.67;100995.92;103129;1300;69490;-86
2023/09/09 02:51:14;;;;;;;3.50;2.50;;;;;;;24.93;28.46;100996.30;103242;1300;69569;-86
2023/09/09 02:53:39;;;;;;;4.10;2.70;;;;;;;24.93;28.52;100991.20;103251;1302;67982;-86
2023/09/09 02:56:04;;;;;;;3.70;2.60;;;;;;;24.92;28.65;100991.86;103282;1299;69697;-86
2023/09/09 02:58:30;;;;;;;6.10;2.70;;;;;;;24.91;28.68;100995.02;103247;1300;69223;-86
2023/09/09 03:01:16;;;;;;;6.70;2.90;;;;;;;24.91;28.79;100993.84;103204;1299;68019;-86
2023/09/09 03:03:49;;;;;;;3.70;2.80;;;;;;;24.89;28.79;100988.71;102999;1297;555790;-86
2023/09/09 03:06:14;;;;;;;4.70;2.70;;;;;;;24.90;28.81;100988.65;103350;1296;69284;-85
2023/09/09 03:08:40;;;;;;;3.40;2.60;;;;;;;24.89;28.91;100980.63;103292;1300;69265;-86
2023/09/09 03:11:05;;;;;;;5.00;2.80;;;;;;;24.90;28.98;100984.23;103224;1297;69210;-86
2023/09/09 03:13:31;;;;;;;7.20;3.10;;;;;;;24.89;28.82;100984.73;103407;1299;69296;-86
2023/09/09 03:15:56;;;;;;;6.30;2.90;;;;;;;24.89;28.65;100979.60;103211;1297;69223;-86
2023/09/09 03:18:22;;;;;;;6.30;2.60;;;;;;;24.88;28.90;100977.13;103372;1297;69328;-86
2023/09/09 03:20:47;;;;;;;5.00;2.90;;;;;;;24.88;28.76;100975.28;103379;1297;69220;-86
2023/09/09 03:23:13;;;;;;;4.70;2.80;;;;;;;24.88;29.09;100976.05;103389;1300;69361;-86
2023/09/09 03:25:38;;;;;;;4.40;2.70;;;;;;;24.87;29.17;100975.75;103234;1300;73599;-86
2023/09/09 03:28:12;;;;;;;5.00;3.20;;;;;;;24.87;29.14;100974.61;103274;1297;69277;-92
2023/09/09 03:30:54;;;;;;;7.90;3.20;;;;;;;24.86;29.12;100972.67;103236;1297;69179;-86
2023/09/09 03:33:30;;;;;;;6.70;2.70;;;;;;;24.85;29.15;100969.70;103439;1297;69178;-86
2023/09/09 03:35:56;;;;;;;4.60;3.10;;;;;;;24.85;28.99;100968.10;103625;1297;69173;-86
2023/09/09 03:38:21;;;;;;;5.10;3.30;;;;;;;24.85;29.23;100968.66;103706;1297;69328;-86
2023/09/09 03:40:47;;;;;;;4.40;3.00;;;;;;;24.85;29.17;100966.97;103450;1297;336928;-86
2023/09/09 03:43:13;;;;;;;5.60;2.90;;;;;;;24.85;29.46;100966.23;103693;1297;69294;-86
2023/09/09 03:45:39;;;;;;;4.00;2.80;;;;;;;24.85;29.24;100970.88;103614;1297;69112;-86
2023/09/09 03:48:05;;;;;;;7.20;3.20;;;;;;;24.84;29.49;100970.58;103679;1301;69176;-86
2023/09/09 03:50:31;;;;;;;5.20;3.10;;;;;;;24.84;29.48;100972.52;103630;1299;68476;-86
2023/09/09 03:52:56;;;;;;;4.10;2.50;;;;;;;24.84;29.53;100975.66;103789;1300;69287;-86
2023/09/09 03:55:22;;;;;;;6.60;3.60;;;;;;;24.84;29.56;100973.66;103886;1302;69210;-86
2023/09/09 03:57:47;;;;;;;4.70;3.10;;;;;;;24.84;29.51;100976.85;103837;1299;69289;-86
2023/09/09 04:00:13;;;;;;;4.80;3.10;;;;;;;24.84;29.59;100974.02;103598;1299;69339;-86
2023/09/09 04:02:39;;;;;;;5.80;3.10;;;;;;;24.83;29.40;100969.30;103240;1300;69343;-86
2023/09/09 04:05:06;;;;;;;7.20;2.90;;;;;;;24.83;29.56;100972.29;103267;1300;69223;-86
2023/09/09 04:07:35;;;;;;;5.60;3.20;;;;;;;24.83;29.61;100968.11;103334;1300;69277;-86
2023/09/09 04:10:05;;;;;;;6.20;3.30;;;;;;;24.82;29.79;100973.32;103357;1299;73484;-86
2023/09/09 04:12:30;;;;;;;13.50;3.40;;;;;;;24.83;29.71;100975.89;103210;1300;72485;-86
2023/09/09 04:14:56;;;;;;;5.60;2.90;;;;;;;24.82;29.54;100976.81;103905;1298;69318;-86
2023/09/09 04:17:22;;;;;;;6.90;3.00;;;;;;;24.82;29.83;100976.77;103716;1299;69332;-86
2023/09/09 04:19:47;;;;;;;3.80;2.90;;;;;;;24.82;29.83;100980.63;103952;1299;69210;-86
2023/09/09 04:22:13;;;;;;;4.80;2.80;;;;;;;24.82;29.72;100984.29;103894;1299;69172;-86
2023/09/09 04:24:38;;;;;;;4.50;2.90;;;;;;;24.82;29.78;100984.27;103762;1300;69284;-86
2023/09/09 04:27:04;;;;;;;5.60;2.80;;;;;;;24.82;29.86;100981.87;103467;1300;69288;-85
2023/09/09 04:29:29;;;;;;;9.60;4.10;;;;;;;24.82;29.85;100984.38;103187;1301;69249;-86
2023/09/09 04:31:55;;;;;;;6.20;3.20;;;;;;;24.81;29.99;100978.27;103319;1300;69270;-85
2023/09/09 04:34:20;;;;;;;6.50;2.90;;;;;;;24.81;29.87;100975.02;103441;1299;69272;-85
2023/09/09 04:39:20;;;;;;;5.30;3.40;;;;;;;24.80;30.06;100970.52;103355;1297;69174;-85
2023/09/09 04:41:45;;;;;;;4.60;3.20;;;;;;;24.80;30.08;100973.75;103379;1297;69307;-86
2023/09/09 04:44:11;;;;;;;5.80;3.00;;;;;;;24.80;30.06;100977.92;103294;1297;69266;-86
2023/09/09 04:46:36;;;;;;;5.80;3.10;;;;;;;24.80;30.09;100979.27;103396;1302;69298;-86
2023/09/09 04:49:03;;;;;;;6.60;2.90;;;;;;;24.79;30.00;100980.14;103368;1300;69304;-86
2023/09/09 04:51:31;;;;;;;4.90;3.00;;;;;;;24.79;30.15;100981.55;103166;1301;73653;-85
2023/09/09 04:53:56;;;;;;;5.30;2.60;;;;;;;24.79;30.22;100982.66;103394;1300;70374;-86
2023/09/09 04:56:22;;;;;;;5.50;3.00;;;;;;;24.79;30.09;100986.33;103175;1300;69330;-85
2023/09/09 04:58:47;;;;;;;3.20;2.50;;;;;;;24.79;30.23;100987.46;103270;1299;68149;-85
2023/09/09 05:01:13;;;;;;;4.60;2.80;;;;;;;24.79;30.22;100983.91;103276;1298;69221;-86
2023/09/09 05:06:18;;;;;;;4.70;3.00;;;;;;;24.78;30.15;100982.53;103329;1297;69164;-85
2023/09/09 05:08:43;;;;;;;7.10;3.10;;;;;;;24.78;30.15;100980.56;103334;1297;69800;-85
2023/09/09 05:11:10;;;;;;;5.20;3.10;;;;;;;24.78;30.29;100982.83;103514;1297;69255;-85
2023/09/09 05:13:35;;;;;;;7.00;3.20;;;;;;;24.77;30.21;100978.91;103444;1297;69291;-85
2023/09/09 05:16:00;;;;;;;6.60;3.60;;;;;;;24.78;30.19;100980.83;103349;1297;69214;-86
2023/09/09 05:18:26;;;;;;;7.10;3.10;;;;;;;24.78;30.18;100981.55;103147;1297;67459;-86
2023/09/09 05:20:51;;;;;;;7.60;3.00;;;;;;;24.77;30.28;100976.67;103380;1297;69163;-86
2023/09/09 05:23:17;;;;;;;4.70;3.30;;;;;;;24.78;30.02;100977.27;103332;1297;69378;-86
2023/09/09 05:25:42;;;;;;;7.10;3.50;;;;;;;24.78;30.24;100980.00;103336;1300;69279;-86
2023/09/09 05:28:08;;;;;;;6.10;3.30;;;;;;;24.78;30.14;100980.98;104053;1297;69317;-86
2023/09/09 05:33:06;;;;;;;5.30;3.30;;;;;;;24.78;30.22;100980.73;104892;1297;72760;-87
2023/09/09 05:35:31;;;;;;;7.20;3.20;;;;;;;24.78;30.18;100982.73;104648;1297;69196;-87
2023/09/09 05:37:57;;;;;;;5.50;3.30;;;;;;;24.78;30.28;100989.67;104670;1297;66939;-87
2023/09/09 05:40:22;;;;;;;5.50;3.20;;;;;;;24.80;30.22;100988.67;103854;1297;69297;-86
2023/09/09 05:42:48;;;;;;;5.20;3.10;;;;;;;24.80;30.44;100987.03;103383;1296;69243;-87
2023/09/09 05:45:14;;;;;;;4.90;3.10;;;;;;;24.80;30.06;100989.77;103263;1297;69289;-86
2023/09/09 05:47:41;;;;;;;5.70;3.10;;;;;;;24.81;30.15;100985.73;103326;1297;69255;-86
2023/09/09 05:50:07;;;;;;;5.60;3.10;;;;;;;24.82;30.40;100988.35;103228;1297;69329;-86
2023/09/09 05:52:33;;;;;;;6.40;3.30;;;;;;;24.82;30.09;100991.23;103286;1302;69286;-86
2023/09/09 05:54:59;;;;;;;4.30;2.80;;;;;;;24.83;30.30;100993.59;103338;1296;69284;-86
2023/09/09 06:00:09;;;;;;;5.80;3.10;;;;;;;24.84;30.22;100992.70;103217;1300;69155;-86
2023/09/09 06:02:34;;;;;;;6.30;3.20;;;;;;;24.85;30.12;100989.52;103394;1299;69306;-86
2023/09/09 06:05:00;;;;;;;5.70;3.30;;;;;;;24.86;30.04;100991.16;103281;1299;69167;-85
2023/09/09 06:07:25;;;;;;;5.30;3.40;;;;;;;24.86;30.40;100993.05;103303;1302;69225;-86
2023/09/09 06:09:51;;;;;;;5.90;3.00;;;;;;;24.87;30.27;100994.59;103177;1299;69261;-86
2023/09/09 06:12:17;;;;;;;7.40;3.20;;;;;;;24.88;30.28;100996.50;103234;1298;69306;-86
2023/09/09 06:14:42;;;;;;;5.60;3.40;;;;;;;24.88;30.29;100996.59;103330;1299;69274;-86
2023/09/09 06:17:10;;;;;;;4.90;3.40;;;;;;;24.88;30.43;100995.36;103367;1302;74668;-86
2023/09/09 06:19:35;;;;;;;3.70;2.90;;;;;;;24.89;30.16;100995.86;103266;1299;69750;-86
2023/09/09 06:22:01;;;;;;;6.00;3.00;;;;;;;24.89;30.15;101002.14;103302;1298;69312;-86
2023/09/09 06:24:35;;;;;;;4.30;3.00;;;;;;;24.89;30.04;101001.31;103123;1299;69748;-91
2023/09/09 06:27:01;;;;;;;5.20;3.10;;;;;;;24.89;30.30;100998.95;103102;1299;69160;-86
2023/09/09 06:29:28;;;;;;;6.00;3.00;;;;;;;24.90;30.36;101000.49;103221;1298;69373;-86
2023/09/09 06:31:54;;;;;;;3.90;2.70;;;;;;;24.90;30.38;100995.44;103268;1300;69092;-87
2023/09/09 06:34:19;;;;;;;4.70;2.90;;;;;;;24.91;30.20;101001.92;103288;1300;69283;-86
2023/09/09 06:36:44;;;;;;;5.10;2.80;;;;;;;24.91;30.37;100998.98;103243;1299;66987;-87
2023/09/09 06:39:10;;;;;;;3.50;2.50;;;;;;;24.91;30.49;101003.83;103205;1300;69313;-86
2023/09/09 06:41:35;;;;;;;4.80;3.30;;;;;;;24.92;30.25;101005.56;103348;1302;69224;-86
2023/09/09 06:44:01;;;;;;;5.90;3.30;;;;;;;24.93;30.37;101008.08;103417;1300;69322;-86
2023/09/09 06:46:26;;;;;;;6.10;3.00;;;;;;;24.94;30.02;101010.54;103632;1299;67417;-87
2023/09/09 06:48:52;;;;;;;6.30;2.80;;;;;;;24.95;30.29;101011.52;103528;1302;69222;-87
2023/09/09 06:51:33;;;;;;;6.10;3.30;;;;;;;24.95;30.27;101012.73;103977;1299;69624;-92
2023/09/09 06:53:59;;;;;;;3.00;2.70;;;;;;;24.96;30.34;101016.96;103500;1300;69179;-86
2023/09/09 06:56:24;;;;;;;4.80;3.10;;;;;;;24.98;30.38;101016.85;103230;1299;69253;-86
2023/09/09 06:58:50;;;;;;;4.90;3.10;;;;;;;24.98;30.14;101016.38;103524;1299;69610;-86
2023/09/09 07:01:15;;;;;;;3.60;2.90;;;;;;;24.99;30.20;101016.06;103418;1299;69225;-87
2023/09/09 07:03:41;;;;;;;6.00;2.80;;;;;;;25.00;30.34;101019.41;103292;1299;69253;-87
2023/09/09 07:06:06;;;;;;;4.50;2.80;;;;;;;25.00;30.26;101019.98;103188;1299;69288;-87
2023/09/09 07:08:32;;;;;;;3.30;2.80;;;;;;;25.01;30.45;101024.65;103216;1300;69303;-86
2023/09/09 07:10:57;;;;;;;4.80;2.60;;;;;;;25.01;30.29;101022.29;103112;1299;69316;-86
2023/09/09 07:13:23;;;;;;;11.60;3.00;;;;;;;25.02;30.29;101021.50;103025;1299;69435;-86
2023/09/09 07:15:54;;;;;;;5.90;2.80;;;;;;;25.03;30.30;101025.34;103101;1299;69235;-86
2023/09/09 07:18:20;;;;;;;4.40;2.80;;;;;;;25.04;30.20;101022.67;103104;1300;69361;-87
2023/09/09 07:20:46;;;;;;;4.10;2.70;;;;;;;25.04;30.33;101021.31;103257;1299;69272;-87
2023/09/09 07:23:14;;;;;;;4.70;2.60;;;;;;;25.05;30.08;101021.77;103065;1299;69839;-86
2023/09/09 07:25:41;;;;;;;5.30;3.10;;;;;;;25.06;30.01;101022.17;103090;1302;69068;-86
2023/09/09 07:28:07;;;;;;;5.90;2.70;;;;;;;25.07;30.20;101023.82;103055;1300;69220;-86
2023/09/09 07:30:33;;;;;;;5.50;2.60;;;;;;;25.07;30.16;101022.77;103071;1299;69230;-86
2023/09/09 07:32:58;;;;;;;3.80;2.60;;;;;;;25.08;30.09;101018.14;103043;1299;69195;-86
2023/09/09 07:35:24;;;;;;;4.00;2.30;;;;;;;25.08;29.99;101015.31;103149;1300;69437;-86
2023/09/09 07:37:50;;;;;;;4.50;2.70;;;;;;;25.08;30.11;101017.89;103069;1302;69287;-86
2023/09/09 07:40:16;;;;;;;4.70;2.80;;;;;;;25.08;29.98;101010.27;103154;1300;70469;-86
2023/09/09 07:42:42;;;;;;;5.40;3.00;;;;;;;25.09;30.05;101014.90;103199;1299;69232;-86
2023/09/09 07:45:08;;;;;;;7.30;2.90;;;;;;;25.10;29.82;101012.84;103028;1299;70417;-87
2023/09/09 07:47:33;;;;;;;3.90;2.60;;;;;;;25.10;29.79;101009.19;103116;1300;69261;-86
2023/09/09 07:49:59;;;;;;;4.80;2.60;;;;;;;25.10;29.90;101008.09;103291;1298;69261;-86
2023/09/09 07:52:24;;;;;;;6.20;2.90;;;;;;;25.11;29.91;101007.42;103232;1299;69281;-86
2023/09/09 07:54:52;;;;;;;7.40;2.80;;;;;;;25.11;29.72;101004.53;103226;1299;69239;-85
2023/09/09 07:57:17;;;;;;;3.50;2.50;;;;;;;25.13;29.66;101005.70;103240;1298;69340;-86
2023/09/09 07:59:43;;;;;;;3.60;2.60;;;;;;;25.13;29.51;100999.11;103087;1299;69312;-86
2023/09/09 08:02:08;;;;;;;3.70;2.40;;;;;;;25.14;29.80;100994.67;103236;1300;69293;-86
2023/09/09 08:04:34;;;;;;;4.50;2.90;;;;;;;25.14;29.51;100990.65;103199;1300;69302;-86
2023/09/09 08:07:00;;;;;;;3.60;2.50;;;;;;;25.16;29.41;100986.05;103186;1300;69303;-86
2023/09/09 08:09:26;;;;;;;6.10;2.70;;;;;;;25.16;29.57;100982.86;103057;1307;69236;-86
2023/09/09 08:11:52;;;;;;;7.30;2.50;;;;;;;25.17;29.50;100979.86;103121;1302;69338;-86
2023/09/09 08:14:18;;;;;;;3.40;2.50;;;;;;;25.17;29.38;100982.02;103186;1299;69153;-86
2023/09/09 08:16:43;;;;;;;4.80;2.50;;;;;;;25.18;29.51;100982.48;103132;1299;69947;-86
2023/09/09 08:19:09;;;;;;;3.50;2.70;;;;;;;25.18;29.37;100987.27;103196;1299;69361;-86
2023/09/09 08:21:34;;;;;;;4.50;2.20;;;;;;;25.19;29.20;100988.14;103380;1300;69178;-86
2023/09/09 08:24:08;;;;;;;7.10;2.60;;;;;;;25.19;29.01;100986.52;103232;1299;69303;-90
2023/09/09 08:26:33;;;;;;;6.10;2.50;;;;;;;25.20;29.01;100979.95;103120;1299;69264;-86
2023/09/09 08:28:59;;;;;;;4.70;2.40;;;;;;;25.21;28.98;100981.78;103256;1299;69295;-86
2023/09/09 08:31:24;;;;;;;4.40;2.50;;;;;;;25.22;28.83;100979.87;103330;1299;69284;-86
2023/09/09 08:33:50;;;;;;;2.90;2.50;;;;;;;25.23;28.87;100978.67;103364;1299;69365;-86
2023/09/09 08:36:16;;;;;;;4.80;2.10;;;;;;;25.23;28.99;100977.13;103584;1299;69733;-86
2023/09/09 08:38:41;;;;;;;3.60;2.50;;;;;;;25.23;28.76;100974.65;103356;1300;69735;-87
2023/09/09 08:41:30;;;;;;;5.40;2.50;;;;;;;25.24;28.61;100969.95;103304;1300;69368;-86
2023/09/09 08:43:58;;;;;;;4.80;2.30;;;;;;;25.25;28.67;100970.11;103200;1300;68320;-86
2023/09/09 08:46:24;;;;;;;4.60;2.20;;;;;;;25.26;28.60;100968.40;103287;1299;74768;-86
2023/09/09 08:48:50;;;;;;;5.30;2.40;;;;;;;25.27;28.71;100964.86;103426;1299;69288;-86
2023/09/09 08:51:25;;;;;;;2.90;2.10;;;;;;;25.27;28.62;100962.86;103358;1299;69293;-86
2023/09/09 08:56:30;;;;;;;3.00;2.10;;;;;;;25.27;28.21;100956.80;103314;1299;69233;-85
2023/09/09 08:58:56;;;;;;;5.40;2.20;;;;;;;25.28;28.53;100950.86;103326;1299;70745;-86
2023/09/09 09:01:22;;;;;;;2.80;2.10;;;;;;;25.29;28.35;100951.20;103288;1299;69380;-86
2023/09/09 09:03:50;;;;;;;3.50;2.30;;;;;;;25.30;28.15;100951.05;103338;1299;69048;-86
2023/09/09 09:06:16;;;;;;;3.30;2.20;;;;;;;25.30;28.15;100950.48;103347;1302;69201;-86
2023/09/09 09:08:42;;;;;;;3.40;2.10;;;;;;;25.30;28.17;100951.57;103373;1299;69322;-86
2023/09/09 09:11:22;;;;;;;;;;;;;;;25.30;27.98;100954.69;103404;1301;73494;-87
2023/09/09 09:13:48;;;;;;;2.90;2.10;;;;;;;25.28;28.11;100958.29;103115;1297;69297;-86
2023/09/09 09:16:14;;;;;;;2.90;1.90;;;;;;;25.28;28.09;100951.64;103370;1297;70175;-86
2023/09/09 09:18:39;;;;;;;2.80;1.90;;;;;;;25.29;28.14;100950.84;103248;1297;69368;-86
2023/09/09 09:21:06;;;;;;;4.50;2.10;;;;;;;25.30;27.88;100948.92;103461;1302;69278;-87
2023/09/09 09:23:32;;;;;;;3.60;2.30;;;;;;;25.30;27.79;100951.20;103649;1297;69048;-86
2023/09/09 09:25:57;;;;;;;3.50;1.80;;;;;;;25.31;28.10;100953.34;103390;1297;69227;-87
2023/09/09 09:28:23;;;;;;;3.00;2.10;;;;;;;25.32;27.70;100946.90;103380;1297;69313;-86
2023/09/09 09:30:48;;;;;;;3.60;2.00;;;;;;;25.33;27.85;100944.98;103297;1297;69764;-86
2023/09/09 09:33:15;;;;;;;3.10;2.30;;;;;;;25.33;27.79;100950.59;103588;1301;69388;-87
2023/09/09 09:38:23;;;;;;;2.70;2.00;;;;;;;25.34;27.97;100946.02;103406;1302;69298;-86
2023/09/09 09:40:48;;;;;;;4.80;1.90;;;;;;;25.35;27.75;100943.27;103573;1296;69348;-86
2023/09/09 09:43:20;;;;;;;2.80;2.00;;;;;;;25.35;27.63;100940.64;103485;1299;69420;-86
2023/09/09 09:45:46;;;;;;;4.70;2.30;;;;;;;25.36;27.80;100940.23;103551;1297;73685;-86
2023/09/09 09:48:23;;;;;;;2.70;1.70;;;;;;;25.37;27.89;100939.50;103446;1301;69741;-86
2023/09/09 09:50:51;;;;;;;3.50;2.00;;;;;;;25.36;27.53;100932.95;103192;1300;69258;-86
2023/09/09 09:53:17;;;;;;;3.70;2.00;;;;;;;25.37;27.55;100926.05;103225;1302;69214;-86
2023/09/09 09:55:44;;;;;;;4.60;1.90;;;;;;;25.38;27.71;100923.21;103391;1299;69287;-86
2023/09/09 09:58:09;;;;;;;2.50;2.00;;;;;;;25.38;27.55;100919.13;103451;1303;68597;-85
2023/09/09 10:00:35;;;;;;;4.60;1.90;;;;;;;25.39;27.53;100916.49;103356;1305;69086;-86
2023/09/09 10:03:02;;;;;;;2.50;2.00;;;;;;;25.39;27.44;100915.25;103425;1302;69264;-86
2023/09/09 10:05:28;;;;;;;2.40;1.80;;;;;;;25.40;27.47;100910.09;103312;1301;69164;-86
2023/09/09 10:08:06;;;;;;;5.10;2.00;;;;;;;25.40;27.59;100908.85;103396;1297;67266;-86
2023/09/09 10:10:32;;;;;;;4.20;2.00;;;;;;;25.41;27.81;100911.57;103434;1297;73920;-86
2023/09/09 10:13:03;;;;;;;2.30;1.80;;;;;;;25.41;27.52;100911.52;103256;1304;69235;-86
2023/09/09 10:15:30;;;;;;;2.90;1.60;;;;;;;25.41;27.45;100903.33;103466;1299;69058;-86
2023/09/09 10:17:55;;;;;;;2.80;2.00;;;;;;;25.42;27.80;100902.23;103494;1297;69191;-86
2023/09/09 10:20:22;;;;;;;2.60;1.80;;;;;;;25.43;27.32;100903.64;103481;1297;69282;-86
2023/09/09 10:22:49;;;;;;;3.10;1.70;;;;;;;25.43;27.65;100897.09;103777;1297;69186;-86
2023/09/09 10:25:14;;;;;;;2.10;1.90;;;;;;;25.43;27.55;100893.91;103429;1303;69297;-86
2023/09/09 10:27:40;;;;;;;3.30;1.90;;;;;;;25.44;27.29;100895.15;103217;1302;69455;-86
2023/09/09 10:30:09;;;;;;;2.40;1.90;;;;;;;25.45;27.32;100894.98;103541;1302;69313;-86
2023/09/09 10:32:39;;;;;;;3.20;2.50;;;;;;;25.45;27.57;100896.88;103386;1297;69267;-91
2023/09/09 10:35:05;;;;;;;;;;;;;;;25.46;27.48;100891.25;103448;1300;73593;-86
2023/09/09 10:37:34;;;;;;;2.20;1.80;;;;;;;25.45;27.38;100891.27;103403;1297;69389;-86
2023/09/09 10:39:59;;;;;;;3.20;1.70;;;;;;;25.45;27.44;100888.34;103874;1303;69089;-86
2023/09/09 10:42:25;;;;;;;2.50;2.20;;;;;;;25.46;27.44;100878.27;104521;1297;67759;-86
2023/09/09 10:44:56;;;;;;;2.20;1.80;;;;;;;25.47;27.74;100885.61;103694;1297;69229;-87
2023/09/09 10:50:05;;;;;;;3.60;1.90;;;;;;;25.49;27.55;100882.81;103430;1301;69159;-87
2023/09/09 10:52:32;;;;;;;3.60;2.20;;;;;;;25.49;27.64;100877.45;103427;1296;69022;-86
2023/09/09 10:55:13;;;;;;;3.10;2.00;;;;;;;25.50;27.83;100874.30;103553;1302;67755;-87
2023/09/09 10:57:38;;;;;;;;;;;;;;;25.51;27.44;100872.39;103391;1298;69118;-86
2023/09/09 11:00:10;;;;;;;4.00;1.90;;;;;;;25.49;27.66;100866.44;103322;1297;69848;-86
2023/09/09 11:02:48;;;;;;;2.00;1.80;;;;;;;25.50;27.57;100864.21;103352;1297;69130;-87
2023/09/09 11:05:14;;;;;;;4.80;1.90;;;;;;;25.51;27.53;100861.21;103180;1300;69250;-86
2023/09/09 11:07:41;;;;;;;3.90;2.00;;;;;;;25.51;27.43;100856.76;103301;1301;69169;-86
2023/09/09 11:10:07;;;;;;;2.70;2.00;;;;;;;25.52;27.51;100848.36;103459;1297;67444;-86
2023/09/09 11:12:32;;;;;;;3.00;2.00;;;;;;;25.53;27.65;100847.41;103438;1302;67259;-87
2023/09/09 11:15:07;;;;;;;2.80;1.80;;;;;;;25.53;27.45;100843.19;103458;1298;69299;-86
2023/09/09 11:17:35;;;;;;;2.20;1.90;;;;;;;25.54;27.36;100842.10;103407;1297;69194;-87
2023/09/09 11:20:00;;;;;;;4.90;1.90;;;;;;;25.54;27.36;100839.01;103253;1297;69205;-87
2023/09/09 11:22:26;;;;;;;3.40;2.00;;;;;;;25.55;27.29;100833.85;103323;1297;69432;-86
2023/09/09 11:24:51;;;;;;;2.10;1.90;;;;;;;25.55;27.47;100830.90;103198;1299;69286;-87
2023/09/09 11:27:17;;;;;;;3.50;1.90;;;;;;;25.56;27.36;100831.46;103457;1301;70089;-87
2023/09/09 11:29:51;;;;;;;3.30;1.80;;;;;;;25.57;27.44;100827.99;103474;1296;69211;-86
2023/09/09 11:32:26;;;;;;;2.60;2.00;;;;;;;25.57;27.39;100827.73;103459;1298;69276;-92
2023/09/09 11:34:53;;;;;;;2.90;2.10;;;;;;;25.57;27.11;100829.99;103348;1296;73637;-86
2023/09/09 11:37:19;;;;;;;2.50;1.70;;;;;;;25.57;27.02;100825.67;103391;1297;69092;-86